sensor_id;sensor_type;location;lat;lon;timestamp;pressure;altitude;pressure_sealevel;temperature;humidity
7105;BME280;3594;42.152;24.714;2023-07-16T00:02:05;62369.59;;;25.10;nan
7105;BME280;3594;42.152;24.714;2023-07-16T00:04:31;62248.25;;;25.04;nan
7105;BME280;3594;42.152;24.714;2023-07-16T00:06:56;62336.75;;;24.79;nan
7105;BME280;3594;42.152;24.714;2023-07-16T00:09:22;62339.81;;;24.72;nan
7105;BME280;3594;42.152;24.714;2023-07-16T00:11:47;62247.34;;;24.78;nan
7105;BME280;3594;42.152;24.714;2023-07-16T00:14:13;62366.53;;;24.73;nan
7105;BME280;3594;42.152;24.714;2023-07-16T00:16:38;62154.19;;;24.60;nan
7105;BME280;3594;42.152;24.714;2023-07-16T00:19:03;62195.84;;;24.81;nan
7105;BME280;3594;42.152;24.714;2023-07-16T00:21:30;62304.97;;;24.85;nan
7105;BME280;3594;42.152;24.714;2023-07-16T00:23:55;62203.00;;;24.74;nan
7105;BME280;3594;42.152;24.714;2023-07-16T00:26:21;62299.13;;;24.73;nan
7105;BME280;3594;42.152;24.714;2023-07-16T00:28:46;62199.56;;;24.71;nan
7105;BME280;3594;42.152;24.714;2023-07-16T00:31:12;62244.75;;;24.62;nan
7105;BME280;3594;42.152;24.714;2023-07-16T00:33:37;62217.28;;;24.70;nan
7105;BME280;3594;42.152;24.714;2023-07-16T00:36:03;62206.81;;;24.70;nan
7105;BME280;3594;42.152;24.714;2023-07-16T00:38:28;62231.75;;;24.74;nan
7105;BME280;3594;42.152;24.714;2023-07-16T00:40:53;62236.03;;;24.63;nan
7105;BME280;3594;42.152;24.714;2023-07-16T00:43:19;62326.38;;;24.30;nan
7105;BME280;3594;42.152;24.714;2023-07-16T00:45:45;62173.13;;;24.45;nan
7105;BME280;3594;42.152;24.714;2023-07-16T00:48:11;62239.81;;;24.04;nan
7105;BME280;3594;42.152;24.714;2023-07-16T00:50:38;62218.22;;;24.25;nan
7105;BME280;3594;42.152;24.714;2023-07-16T00:53:08;62246.66;;;24.27;nan
7105;BME280;3594;42.152;24.714;2023-07-16T00:55:35;62136.38;;;24.26;nan
7105;BME280;3594;42.152;24.714;2023-07-16T00:58:04;62080.59;;;24.16;nan
7105;BME280;3594;42.152;24.714;2023-07-16T01:00:34;62250.41;;;24.28;nan
7105;BME280;3594;42.152;24.714;2023-07-16T01:03:01;62177.63;;;23.33;nan
7105;BME280;3594;42.152;24.714;2023-07-16T01:05:33;62247.06;;;24.04;nan
7105;BME280;3594;42.152;24.714;2023-07-16T01:08:03;62412.88;;;24.12;nan
7105;BME280;3594;42.152;24.714;2023-07-16T01:10:30;62409.31;;;24.18;nan
7105;BME280;3594;42.152;24.714;2023-07-16T01:12:57;62017.00;;;23.39;nan
7105;BME280;3594;42.152;24.714;2023-07-16T01:15:22;62230.19;;;23.91;nan
7105;BME280;3594;42.152;24.714;2023-07-16T01:17:48;62154.09;;;24.09;nan
7105;BME280;3594;42.152;24.714;2023-07-16T01:20:13;62143.25;;;24.16;nan
7105;BME280;3594;42.152;24.714;2023-07-16T01:22:47;62178.25;;;24.22;nan
7105;BME280;3594;42.152;24.714;2023-07-16T01:25:35;62235.97;;;24.08;nan
7105;BME280;3594;42.152;24.714;2023-07-16T01:30:52;62216.72;;;23.82;nan
7105;BME280;3594;42.152;24.714;2023-07-16T01:33:20;62203.91;;;24.00;nan
7105;BME280;3594;42.152;24.714;2023-07-16T01:35:47;62151.44;;;23.98;nan
7105;BME280;3594;42.152;24.714;2023-07-16T01:38:13;62120.94;;;24.01;nan
7105;BME280;3594;42.152;24.714;2023-07-16T01:40:38;62132.56;;;24.13;nan
7105;BME280;3594;42.152;24.714;2023-07-16T01:43:04;62132.66;;;24.09;nan
7105;BME280;3594;42.152;24.714;2023-07-16T01:45:29;62132.66;;;24.09;nan
7105;BME280;3594;42.152;24.714;2023-07-16T01:48:17;62268.53;;;24.20;nan
7105;BME280;3594;42.152;24.714;2023-07-16T01:50:47;62047.75;;;23.77;nan
7105;BME280;3594;42.152;24.714;2023-07-16T01:53:13;62123.63;;;23.96;nan
7105;BME280;3594;42.152;24.714;2023-07-16T01:55:38;62170.19;;;23.59;nan
7105;BME280;3594;42.152;24.714;2023-07-16T01:58:03;62070.34;;;23.51;nan
7105;BME280;3594;42.152;24.714;2023-07-16T02:00:30;62033.16;;;23.55;nan
7105;BME280;3594;42.152;24.714;2023-07-16T02:02:56;62302.22;;;23.69;nan
7105;BME280;3594;42.152;24.714;2023-07-16T02:05:21;62029.88;;;23.59;nan
7105;BME280;3594;42.152;24.714;2023-07-16T02:07:46;62164.50;;;23.54;nan
7105;BME280;3594;42.152;24.714;2023-07-16T02:10:12;62074.09;;;23.52;nan
7105;BME280;3594;42.152;24.714;2023-07-16T02:12:37;62034.53;;;23.59;nan
7105;BME280;3594;42.152;24.714;2023-07-16T02:15:03;62220.66;;;23.73;nan
7105;BME280;3594;42.152;24.714;2023-07-16T02:17:28;62078.94;;;23.70;nan
7105;BME280;3594;42.152;24.714;2023-07-16T02:19:53;62083.19;;;23.88;nan
7105;BME280;3594;42.152;24.714;2023-07-16T02:22:19;61732.19;;;20.34;nan
7105;BME280;3594;42.152;24.714;2023-07-16T02:24:45;62148.97;;;24.05;nan
7105;BME280;3594;42.152;24.714;2023-07-16T02:27:10;62148.44;;;24.04;nan
7105;BME280;3594;42.152;24.714;2023-07-16T02:29:36;62077.94;;;23.76;nan
7105;BME280;3594;42.152;24.714;2023-07-16T02:32:01;62160.16;;;24.12;nan
7105;BME280;3594;42.152;24.714;2023-07-16T02:34:26;62127.72;;;23.95;nan
7105;BME280;3594;42.152;24.714;2023-07-16T02:36:52;62094.41;;;23.80;nan
7105;BME280;3594;42.152;24.714;2023-07-16T02:39:17;62075.38;;;23.88;nan
7105;BME280;3594;42.152;24.714;2023-07-16T02:41:43;62080.66;;;24.00;nan
7105;BME280;3594;42.152;24.714;2023-07-16T02:44:08;62077.47;;;23.71;nan
7105;BME280;3594;42.152;24.714;2023-07-16T02:46:34;62046.59;;;23.65;nan
7105;BME280;3594;42.152;24.714;2023-07-16T02:49:00;62012.16;;;23.20;nan
7105;BME280;3594;42.152;24.714;2023-07-16T02:51:25;62133.53;;;23.35;nan
7105;BME280;3594;42.152;24.714;2023-07-16T02:53:51;62057.88;;;23.80;nan
7105;BME280;3594;42.152;24.714;2023-07-16T02:56:16;62154.28;;;24.00;nan
7105;BME280;3594;42.152;24.714;2023-07-16T02:58:42;62225.47;;;23.80;nan
7105;BME280;3594;42.152;24.714;2023-07-16T03:01:07;62113.09;;;24.01;nan
7105;BME280;3594;42.152;24.714;2023-07-16T03:03:32;62143.91;;;23.24;nan
7105;BME280;3594;42.152;24.714;2023-07-16T03:05:58;62153.72;;;23.72;nan
7105;BME280;3594;42.152;24.714;2023-07-16T03:08:23;62129.09;;;23.99;nan
7105;BME280;3594;42.152;24.714;2023-07-16T03:10:51;62070.38;;;23.91;nan
7105;BME280;3594;42.152;24.714;2023-07-16T03:13:16;62122.53;;;24.07;nan
7105;BME280;3594;42.152;24.714;2023-07-16T03:15:42;62322.47;;;24.22;nan
7105;BME280;3594;42.152;24.714;2023-07-16T03:18:07;62129.88;;;24.57;nan
7105;BME280;3594;42.152;24.714;2023-07-16T03:20:33;62184.56;;;24.67;nan
7105;BME280;3594;42.152;24.714;2023-07-16T03:22:58;61990.78;;;22.60;nan
7105;BME280;3594;42.152;24.714;2023-07-16T03:25:23;62352.47;;;25.50;nan
7105;BME280;3594;42.152;24.714;2023-07-16T03:27:49;62388.66;;;26.01;nan
7105;BME280;3594;42.152;24.714;2023-07-16T03:30:14;62453.75;;;26.19;nan
7105;BME280;3594;42.152;24.714;2023-07-16T03:32:40;62500.81;;;26.79;nan
7105;BME280;3594;42.152;24.714;2023-07-16T03:35:05;62544.53;;;27.20;nan
7105;BME280;3594;42.152;24.714;2023-07-16T03:37:30;62784.03;;;27.93;nan
7105;BME280;3594;42.152;24.714;2023-07-16T03:39:56;62722.41;;;28.47;nan
7105;BME280;3594;42.152;24.714;2023-07-16T03:42:21;62829.91;;;28.77;nan
7105;BME280;3594;42.152;24.714;2023-07-16T03:44:47;62822.75;;;28.96;nan
7105;BME280;3594;42.152;24.714;2023-07-16T03:47:13;62977.69;;;29.70;nan
7105;BME280;3594;42.152;24.714;2023-07-16T03:49:38;62978.47;;;29.90;nan
7105;BME280;3594;42.152;24.714;2023-07-16T03:52:04;63110.13;;;30.54;nan
7105;BME280;3594;42.152;24.714;2023-07-16T03:54:29;63140.28;;;30.83;nan
7105;BME280;3594;42.152;24.714;2023-07-16T03:56:55;63267.75;;;31.74;nan
7105;BME280;3594;42.152;24.714;2023-07-16T03:59:20;63467.91;;;32.31;nan
7105;BME280;3594;42.152;24.714;2023-07-16T04:01:45;63354.91;;;32.74;nan
7105;BME280;3594;42.152;24.714;2023-07-16T04:04:11;63473.31;;;33.22;nan
7105;BME280;3594;42.152;24.714;2023-07-16T04:06:36;63538.16;;;33.46;nan
7105;BME280;3594;42.152;24.714;2023-07-16T04:09:02;63596.41;;;33.90;nan
7105;BME280;3594;42.152;24.714;2023-07-16T04:11:27;63514.03;;;33.71;nan
7105;BME280;3594;42.152;24.714;2023-07-16T04:13:53;63710.03;;;34.41;nan
7105;BME280;3594;42.152;24.714;2023-07-16T04:16:18;63760.56;;;34.80;nan
7105;BME280;3594;42.152;24.714;2023-07-16T04:18:43;63762.16;;;34.75;nan
7105;BME280;3594;42.152;24.714;2023-07-16T04:21:09;63820.25;;;35.05;nan
7105;BME280;3594;42.152;24.714;2023-07-16T04:23:35;63899.22;;;35.13;nan
7105;BME280;3594;42.152;24.714;2023-07-16T04:26:00;63879.34;;;34.89;nan
7105;BME280;3594;42.152;24.714;2023-07-16T04:28:26;63935.16;;;35.05;nan
7105;BME280;3594;42.152;24.714;2023-07-16T04:30:51;63682.91;;;34.40;nan
7105;BME280;3594;42.152;24.714;2023-07-16T04:33:16;63749.84;;;34.13;nan
7105;BME280;3594;42.152;24.714;2023-07-16T04:35:44;63648.75;;;33.71;nan
7105;BME280;3594;42.152;24.714;2023-07-16T04:38:09;63592.06;;;33.61;nan
7105;BME280;3594;42.152;24.714;2023-07-16T04:40:35;63409.00;;;32.75;nan
7105;BME280;3594;42.152;24.714;2023-07-16T04:43:00;63359.13;;;32.17;nan
7105;BME280;3594;42.152;24.714;2023-07-16T04:45:25;63586.41;;;32.31;nan
7105;BME280;3594;42.152;24.714;2023-07-16T04:47:51;63349.63;;;32.34;nan
7105;BME280;3594;42.152;24.714;2023-07-16T04:50:16;63377.44;;;32.26;nan
7105;BME280;3594;42.152;24.714;2023-07-16T04:52:42;63331.94;;;32.10;nan
7105;BME280;3594;42.152;24.714;2023-07-16T04:55:07;63317.97;;;32.02;nan
7105;BME280;3594;42.152;24.714;2023-07-16T04:57:33;63368.50;;;32.05;nan
7105;BME280;3594;42.152;24.714;2023-07-16T04:59:59;63274.03;;;31.96;nan
7105;BME280;3594;42.152;24.714;2023-07-16T05:02:24;63453.63;;;32.37;nan
7105;BME280;3594;42.152;24.714;2023-07-16T05:04:49;63447.50;;;32.78;nan
7105;BME280;3594;42.152;24.714;2023-07-16T05:07:15;63538.38;;;33.09;nan
7105;BME280;3594;42.152;24.714;2023-07-16T05:09:44;63621.91;;;33.29;nan
7105;BME280;3594;42.152;24.714;2023-07-16T05:12:10;63518.25;;;33.15;nan
7105;BME280;3594;42.152;24.714;2023-07-16T05:14:46;63596.72;;;33.49;nan
7105;BME280;3594;42.152;24.714;2023-07-16T05:17:13;63630.72;;;33.44;nan
7105;BME280;3594;42.152;24.714;2023-07-16T05:19:38;63595.81;;;33.22;nan
7105;BME280;3594;42.152;24.714;2023-07-16T05:22:04;63486.84;;;33.08;nan
7105;BME280;3594;42.152;24.714;2023-07-16T05:24:30;63565.16;;;32.96;nan
7105;BME280;3594;42.152;24.714;2023-07-16T05:26:56;63467.19;;;32.79;nan
7105;BME280;3594;42.152;24.714;2023-07-16T05:29:21;63438.97;;;32.50;nan
7105;BME280;3594;42.152;24.714;2023-07-16T05:31:47;63470.88;;;32.57;nan
7105;BME280;3594;42.152;24.714;2023-07-16T05:34:12;63363.84;;;32.28;nan
7105;BME280;3594;42.152;24.714;2023-07-16T05:36:38;63488.44;;;32.47;nan
7105;BME280;3594;42.152;24.714;2023-07-16T05:39:03;63572.97;;;33.16;nan
7105;BME280;3594;42.152;24.714;2023-07-16T05:41:29;63619.75;;;33.34;nan
7105;BME280;3594;42.152;24.714;2023-07-16T05:43:54;63464.63;;;32.75;nan
7105;BME280;3594;42.152;24.714;2023-07-16T05:46:19;63457.91;;;32.60;nan
7105;BME280;3594;42.152;24.714;2023-07-16T05:48:45;63488.69;;;32.22;nan
7105;BME280;3594;42.152;24.714;2023-07-16T05:51:10;63394.00;;;32.22;nan
7105;BME280;3594;42.152;24.714;2023-07-16T05:53:35;63424.69;;;32.17;nan
7105;BME280;3594;42.152;24.714;2023-07-16T05:56:01;63271.56;;;31.75;nan
7105;BME280;3594;42.152;24.714;2023-07-16T05:58:26;63293.63;;;31.74;nan
7105;BME280;3594;42.152;24.714;2023-07-16T06:00:52;63291.81;;;31.49;nan
7105;BME280;3594;42.152;24.714;2023-07-16T06:03:17;63088.66;;;30.96;nan
7105;BME280;3594;42.152;24.714;2023-07-16T06:05:44;63199.22;;;30.98;nan
7105;BME280;3594;42.152;24.714;2023-07-16T06:08:09;63158.66;;;30.88;nan
7105;BME280;3594;42.152;24.714;2023-07-16T06:10:34;63153.53;;;30.67;nan
7105;BME280;3594;42.152;24.714;2023-07-16T06:13:00;63126.13;;;30.17;nan
7105;BME280;3594;42.152;24.714;2023-07-16T06:15:25;63066.38;;;29.88;nan
7105;BME280;3594;42.152;24.714;2023-07-16T06:17:51;62984.16;;;29.55;nan
7105;BME280;3594;42.152;24.714;2023-07-16T06:20:17;62900.84;;;29.77;nan
7105;BME280;3594;42.152;24.714;2023-07-16T06:22:42;62867.88;;;29.34;nan
7105;BME280;3594;42.152;24.714;2023-07-16T06:25:08;62880.50;;;29.45;nan
7105;BME280;3594;42.152;24.714;2023-07-16T06:27:36;63035.47;;;28.75;nan
7105;BME280;3594;42.152;24.714;2023-07-16T06:30:02;62906.69;;;29.38;nan
7105;BME280;3594;42.152;24.714;2023-07-16T06:32:27;62956.25;;;29.33;nan
7105;BME280;3594;42.152;24.714;2023-07-16T06:34:52;62997.81;;;29.60;nan
7105;BME280;3594;42.152;24.714;2023-07-16T06:37:18;62931.09;;;29.85;nan
7105;BME280;3594;42.152;24.714;2023-07-16T06:39:43;63032.44;;;30.14;nan
7105;BME280;3594;42.152;24.714;2023-07-16T06:42:09;63098.34;;;30.42;nan
7105;BME280;3594;42.152;24.714;2023-07-16T06:44:35;63156.72;;;30.56;nan
7105;BME280;3594;42.152;24.714;2023-07-16T06:47:00;63123.44;;;30.61;nan
7105;BME280;3594;42.152;24.714;2023-07-16T06:49:26;63089.06;;;30.78;nan
7105;BME280;3594;42.152;24.714;2023-07-16T06:51:52;63196.50;;;31.02;nan
7105;BME280;3594;42.152;24.714;2023-07-16T06:54:17;63062.88;;;30.68;nan
7105;BME280;3594;42.152;24.714;2023-07-16T06:56:42;63068.59;;;30.34;nan
7105;BME280;3594;42.152;24.714;2023-07-16T06:59:08;62966.16;;;30.16;nan
7105;BME280;3594;42.152;24.714;2023-07-16T07:01:33;63029.59;;;30.23;nan
7105;BME280;3594;42.152;24.714;2023-07-16T07:03:59;62987.72;;;30.21;nan
7105;BME280;3594;42.152;24.714;2023-07-16T07:06:24;62993.41;;;30.03;nan
7105;BME280;3594;42.152;24.714;2023-07-16T07:08:49;62992.31;;;30.25;nan
7105;BME280;3594;42.152;24.714;2023-07-16T07:11:15;63109.78;;;30.28;nan
7105;BME280;3594;42.152;24.714;2023-07-16T07:13:40;63178.44;;;30.24;nan
7105;BME280;3594;42.152;24.714;2023-07-16T07:16:05;63116.81;;;30.69;nan
7105;BME280;3594;42.152;24.714;2023-07-16T07:18:31;63079.88;;;30.69;nan
7105;BME280;3594;42.152;24.714;2023-07-16T07:20:56;63061.25;;;30.62;nan
7105;BME280;3594;42.152;24.714;2023-07-16T07:23:22;63178.53;;;30.63;nan
7105;BME280;3594;42.152;24.714;2023-07-16T07:25:51;63099.31;;;30.91;nan
7105;BME280;3594;42.152;24.714;2023-07-16T07:28:16;63237.13;;;30.80;nan
7105;BME280;3594;42.152;24.714;2023-07-16T07:30:42;63250.53;;;31.15;nan
7105;BME280;3594;42.152;24.714;2023-07-16T07:33:07;63273.97;;;31.17;nan
7105;BME280;3594;42.152;24.714;2023-07-16T07:35:33;63287.16;;;31.17;nan
7105;BME280;3594;42.152;24.714;2023-07-16T07:37:58;63161.78;;;30.93;nan
7105;BME280;3594;42.152;24.714;2023-07-16T07:40:25;63137.00;;;30.43;nan
7105;BME280;3594;42.152;24.714;2023-07-16T07:42:50;64495.97;;;26.15;nan
7105;BME280;3594;42.152;24.714;2023-07-16T07:45:15;62924.19;;;29.67;nan
7105;BME280;3594;42.152;24.714;2023-07-16T07:47:41;63021.03;;;29.71;nan
7105;BME280;3594;42.152;24.714;2023-07-16T07:50:07;62928.31;;;29.66;nan
7105;BME280;3594;42.152;24.714;2023-07-16T07:52:32;62972.06;;;29.61;nan
7105;BME280;3594;42.152;24.714;2023-07-16T07:54:57;62977.78;;;29.94;nan
7105;BME280;3594;42.152;24.714;2023-07-16T07:57:23;62988.19;;;30.14;nan
7105;BME280;3594;42.152;24.714;2023-07-16T07:59:49;63013.03;;;30.15;nan
7105;BME280;3594;42.152;24.714;2023-07-16T08:02:16;63157.81;;;30.73;nan
7105;BME280;3594;42.152;24.714;2023-07-16T08:04:43;63068.16;;;30.68;nan
7105;BME280;3594;42.152;24.714;2023-07-16T08:07:09;63052.28;;;30.57;nan
7105;BME280;3594;42.152;24.714;2023-07-16T08:09:37;63016.28;;;30.67;nan
7105;BME280;3594;42.152;24.714;2023-07-16T08:12:03;63133.25;;;30.70;nan
7105;BME280;3594;42.152;24.714;2023-07-16T08:14:28;63152.69;;;30.36;nan
7105;BME280;3594;42.152;24.714;2023-07-16T08:16:54;63023.28;;;30.29;nan
7105;BME280;3594;42.152;24.714;2023-07-16T08:19:19;63139.19;;;30.66;nan
7105;BME280;3594;42.152;24.714;2023-07-16T08:21:44;62947.16;;;29.88;nan
7105;BME280;3594;42.152;24.714;2023-07-16T08:24:10;63102.22;;;30.66;nan
7105;BME280;3594;42.152;24.714;2023-07-16T08:26:35;63071.50;;;30.76;nan
7105;BME280;3594;42.152;24.714;2023-07-16T08:29:01;63224.03;;;31.31;nan
7105;BME280;3594;42.152;24.714;2023-07-16T08:31:27;63130.31;;;30.84;nan
7105;BME280;3594;42.152;24.714;2023-07-16T08:33:53;62963.84;;;30.77;nan
7105;BME280;3594;42.152;24.714;2023-07-16T08:36:18;63292.34;;;31.49;nan
7105;BME280;3594;42.152;24.714;2023-07-16T08:38:44;63349.25;;;31.69;nan
7105;BME280;3594;42.152;24.714;2023-07-16T08:41:10;63386.25;;;31.69;nan
7105;BME280;3594;42.152;24.714;2023-07-16T08:43:35;63355.44;;;31.95;nan
7105;BME280;3594;42.152;24.714;2023-07-16T08:46:01;63294.06;;;31.67;nan
7105;BME280;3594;42.152;24.714;2023-07-16T08:48:28;63189.59;;;31.75;nan
7105;BME280;3594;42.152;24.714;2023-07-16T08:50:55;63264.22;;;31.76;nan
7105;BME280;3594;42.152;24.714;2023-07-16T08:53:23;63233.63;;;31.77;nan
7105;BME280;3594;42.152;24.714;2023-07-16T08:55:49;63355.81;;;32.05;nan
7105;BME280;3594;42.152;24.714;2023-07-16T08:58:15;63337.06;;;32.30;nan
7105;BME280;3594;42.152;24.714;2023-07-16T09:00:49;63471.69;;;32.32;nan
7105;BME280;3594;42.152;24.714;2023-07-16T09:03:15;63403.63;;;32.52;nan
7105;BME280;3594;42.152;24.714;2023-07-16T09:05:46;63438.28;;;32.54;nan
7105;BME280;3594;42.152;24.714;2023-07-16T09:08:12;63338.81;;;32.04;nan
7105;BME280;3594;42.152;24.714;2023-07-16T09:10:41;63297.81;;;31.56;nan
7105;BME280;3594;42.152;24.714;2023-07-16T09:13:06;63349.53;;;31.55;nan
7105;BME280;3594;42.152;24.714;2023-07-16T09:15:32;63227.94;;;31.55;nan
7105;BME280;3594;42.152;24.714;2023-07-16T09:18:00;63358.25;;;31.75;nan
7105;BME280;3594;42.152;24.714;2023-07-16T09:20:26;63255.00;;;31.40;nan
7105;BME280;3594;42.152;24.714;2023-07-16T09:22:56;63249.69;;;31.68;nan
7105;BME280;3594;42.152;24.714;2023-07-16T09:25:29;63333.53;;;31.32;nan
7105;BME280;3594;42.152;24.714;2023-07-16T09:27:58;63319.44;;;31.89;nan
7105;BME280;3594;42.152;24.714;2023-07-16T09:30:33;63338.22;;;32.04;nan
7105;BME280;3594;42.152;24.714;2023-07-16T09:33:18;63393.75;;;32.20;nan
7105;BME280;3594;42.152;24.714;2023-07-16T09:35:47;63412.50;;;32.22;nan
7105;BME280;3594;42.152;24.714;2023-07-16T09:38:13;63386.22;;;32.41;nan
7105;BME280;3594;42.152;24.714;2023-07-16T09:40:39;63383.53;;;32.29;nan
7105;BME280;3594;42.152;24.714;2023-07-16T09:43:08;63356.00;;;31.96;nan
7105;BME280;3594;42.152;24.714;2023-07-16T09:45:34;63395.84;;;32.03;nan
7105;BME280;3594;42.152;24.714;2023-07-16T09:48:00;63436.66;;;32.48;nan
7105;BME280;3594;42.152;24.714;2023-07-16T09:50:28;63426.66;;;32.49;nan
7105;BME280;3594;42.152;24.714;2023-07-16T09:52:56;63364.31;;;31.94;nan
7105;BME280;3594;42.152;24.714;2023-07-16T09:55:23;63310.19;;;32.09;nan
7105;BME280;3594;42.152;24.714;2023-07-16T09:57:51;63418.69;;;32.37;nan
7105;BME280;3594;42.152;24.714;2023-07-16T10:00:17;63524.97;;;32.30;nan
7105;BME280;3594;42.152;24.714;2023-07-16T10:02:44;63376.56;;;32.39;nan
7105;BME280;3594;42.152;24.714;2023-07-16T10:05:27;63581.59;;;32.04;nan
7105;BME280;3594;42.152;24.714;2023-07-16T10:07:58;63354.31;;;32.34;nan
7105;BME280;3594;42.152;24.714;2023-07-16T10:10:38;63452.13;;;32.55;nan
7105;BME280;3594;42.152;24.714;2023-07-16T10:13:04;63451.50;;;32.70;nan
7105;BME280;3594;42.152;24.714;2023-07-16T10:15:31;63538.59;;;32.84;nan
7105;BME280;3594;42.152;24.714;2023-07-16T10:17:57;63541.09;;;32.77;nan
7105;BME280;3594;42.152;24.714;2023-07-16T10:20:32;63520.44;;;32.94;nan
7105;BME280;3594;42.152;24.714;2023-07-16T10:22:58;63501.47;;;33.00;nan
7105;BME280;3594;42.152;24.714;2023-07-16T10:25:27;63673.09;;;32.83;nan
7105;BME280;3594;42.152;24.714;2023-07-16T10:27:53;63555.63;;;33.01;nan
7105;BME280;3594;42.152;24.714;2023-07-16T10:30:20;63590.03;;;33.17;nan
7105;BME280;3594;42.152;24.714;2023-07-16T10:32:46;63436.34;;;32.78;nan
7105;BME280;3594;42.152;24.714;2023-07-16T10:35:12;63429.19;;;32.81;nan
7105;BME280;3594;42.152;24.714;2023-07-16T10:37:39;63480.06;;;33.09;nan
7105;BME280;3594;42.152;24.714;2023-07-16T10:40:05;63478.88;;;32.41;nan
7105;BME280;3594;42.152;24.714;2023-07-16T10:42:34;63468.13;;;32.62;nan
7105;BME280;3594;42.152;24.714;2023-07-16T10:45:09;63510.50;;;32.78;nan
7105;BME280;3594;42.152;24.714;2023-07-16T10:47:37;63436.28;;;32.38;nan
7105;BME280;3594;42.152;24.714;2023-07-16T10:50:07;63434.97;;;32.58;nan
7105;BME280;3594;42.152;24.714;2023-07-16T10:52:36;63443.03;;;32.93;nan
7105;BME280;3594;42.152;24.714;2023-07-16T10:55:03;63631.19;;;33.21;nan
7105;BME280;3594;42.152;24.714;2023-07-16T10:57:28;63628.75;;;33.67;nan
7105;BME280;3594;42.152;24.714;2023-07-16T10:59:57;63551.84;;;33.40;nan
7105;BME280;3594;42.152;24.714;2023-07-16T11:02:23;63331.06;;;32.23;nan
7105;BME280;3594;42.152;24.714;2023-07-16T11:04:50;63446.94;;;32.78;nan
7105;BME280;3594;42.152;24.714;2023-07-16T11:07:16;63552.03;;;33.19;nan
7105;BME280;3594;42.152;24.714;2023-07-16T11:12:15;63735.13;;;33.98;nan
7105;BME280;3594;42.152;24.714;2023-07-16T11:14:50;63804.78;;;34.26;nan
7105;BME280;3594;42.152;24.714;2023-07-16T11:17:16;63801.66;;;34.49;nan
7105;BME280;3594;42.152;24.714;2023-07-16T11:19:45;63767.16;;;34.60;nan
7105;BME280;3594;42.152;24.714;2023-07-16T11:22:11;63809.06;;;34.76;nan
7105;BME280;3594;42.152;24.714;2023-07-16T11:24:44;63812.88;;;34.77;nan
7105;BME280;3594;42.152;24.714;2023-07-16T11:27:21;63953.31;;;35.12;nan
7105;BME280;3594;42.152;24.714;2023-07-16T11:29:54;63885.00;;;34.87;nan
7105;BME280;3594;42.152;24.714;2023-07-16T11:32:42;63759.16;;;34.49;nan
7105;BME280;3594;42.152;24.714;2023-07-16T11:35:11;63708.69;;;34.49;nan
7105;BME280;3594;42.152;24.714;2023-07-16T11:37:40;63741.38;;;34.52;nan
7105;BME280;3594;42.152;24.714;2023-07-16T11:40:08;63903.47;;;34.64;nan
7105;BME280;3594;42.152;24.714;2023-07-16T11:42:36;63899.66;;;35.07;nan
7105;BME280;3594;42.152;24.714;2023-07-16T11:45:03;63885.97;;;34.97;nan
7105;BME280;3594;42.152;24.714;2023-07-16T11:47:29;63807.88;;;35.03;nan
7105;BME280;3594;42.152;24.714;2023-07-16T11:49:55;63861.94;;;35.18;nan
7105;BME280;3594;42.152;24.714;2023-07-16T11:52:23;63880.56;;;35.29;nan
7105;BME280;3594;42.152;24.714;2023-07-16T11:54:49;63945.56;;;35.30;nan
7105;BME280;3594;42.152;24.714;2023-07-16T11:57:15;64017.84;;;35.52;nan
7105;BME280;3594;42.152;24.714;2023-07-16T11:59:41;64014.34;;;35.65;nan
7105;BME280;3594;42.152;24.714;2023-07-16T12:02:07;63951.28;;;35.40;nan
7105;BME280;3594;42.152;24.714;2023-07-16T12:04:32;63905.06;;;34.58;nan
7105;BME280;3594;42.152;24.714;2023-07-16T12:06:58;63678.63;;;34.34;nan
7105;BME280;3594;42.152;24.714;2023-07-16T12:09:23;63800.22;;;34.45;nan
7105;BME280;3594;42.152;24.714;2023-07-16T12:11:48;63819.19;;;34.71;nan
7105;BME280;3594;42.152;24.714;2023-07-16T12:14:14;63821.19;;;34.75;nan
7105;BME280;3594;42.152;24.714;2023-07-16T12:16:39;63855.88;;;34.66;nan
7105;BME280;3594;42.152;24.714;2023-07-16T12:19:06;63847.03;;;34.51;nan
7105;BME280;3594;42.152;24.714;2023-07-16T12:21:32;63770.31;;;34.38;nan
7105;BME280;3594;42.152;24.714;2023-07-16T12:23:57;63734.88;;;34.39;nan
7105;BME280;3594;42.152;24.714;2023-07-16T12:26:23;63842.22;;;34.73;nan
7105;BME280;3594;42.152;24.714;2023-07-16T12:28:48;63683.16;;;34.15;nan
7105;BME280;3594;42.152;24.714;2023-07-16T12:31:14;63775.56;;;34.10;nan
7105;BME280;3594;42.152;24.714;2023-07-16T12:33:40;63733.19;;;34.22;nan
7105;BME280;3594;42.152;24.714;2023-07-16T12:36:05;63751.97;;;33.96;nan
7105;BME280;3594;42.152;24.714;2023-07-16T12:38:31;63635.94;;;33.76;nan
7105;BME280;3594;42.152;24.714;2023-07-16T12:40:56;63579.91;;;33.78;nan
7105;BME280;3594;42.152;24.714;2023-07-16T12:43:21;63625.28;;;33.64;nan
7105;BME280;3594;42.152;24.714;2023-07-16T12:45:47;63578.22;;;33.60;nan
7105;BME280;3594;42.152;24.714;2023-07-16T12:48:12;63504.84;;;33.47;nan
7105;BME280;3594;42.152;24.714;2023-07-16T12:50:38;63681.00;;;33.92;nan
7105;BME280;3594;42.152;24.714;2023-07-16T12:53:03;63741.47;;;34.20;nan
7105;BME280;3594;42.152;24.714;2023-07-16T12:55:28;63799.28;;;34.35;nan
7105;BME280;3594;42.152;24.714;2023-07-16T12:57:56;63759.53;;;34.31;nan
7105;BME280;3594;42.152;24.714;2023-07-16T13:00:21;63752.38;;;34.06;nan
7105;BME280;3594;42.152;24.714;2023-07-16T13:02:47;63773.56;;;34.50;nan
7105;BME280;3594;42.152;24.714;2023-07-16T13:05:12;64007.81;;;34.55;nan
7105;BME280;3594;42.152;24.714;2023-07-16T13:07:37;63807.47;;;34.82;nan
7105;BME280;3594;42.152;24.714;2023-07-16T13:10:03;63890.81;;;34.92;nan
7105;BME280;3594;42.152;24.714;2023-07-16T13:12:29;63790.16;;;34.62;nan
7105;BME280;3594;42.152;24.714;2023-07-16T13:14:54;63843.47;;;34.53;nan
7105;BME280;3594;42.152;24.714;2023-07-16T13:17:20;63901.88;;;34.85;nan
7105;BME280;3594;42.152;24.714;2023-07-16T13:19:45;63857.69;;;34.79;nan
7105;BME280;3594;42.152;24.714;2023-07-16T13:22:12;63818.22;;;34.89;nan
7105;BME280;3594;42.152;24.714;2023-07-16T13:24:39;63686.63;;;34.46;nan
7105;BME280;3594;42.152;24.714;2023-07-16T13:27:05;63793.69;;;34.77;nan
7105;BME280;3594;42.152;24.714;2023-07-16T13:29:30;63977.59;;;34.93;nan
7105;BME280;3594;42.152;24.714;2023-07-16T13:31:56;64000.53;;;34.67;nan
7105;BME280;3594;42.152;24.714;2023-07-16T13:34:21;63860.25;;;35.12;nan